Aérodrome :
LOGIN :

S'inscrire | Disclaimer

   EN    FR    IT 

 










Légende :    VFR   VFR Marginal   IFR   IFR Intensif   IFR Très Intensif
Visi : 
Plafond : 
>= 8 km
>= 3000ft
5 à 8 km
1000 à 3000 ft
1500m à 5 km
500 à 1000 ft
800 à 1500m
200 à 500 ft
< 800m
< 200 ft
Symboles :   Orages  Brouillard  Fortes neiges  Fortes précipitations  Vent > 20 kt
SIGMETs :   Divers  Orages  Givrage  Turbulence  Onde Orograph.  Cendres Volcan.






- Altitude de l'aérodrome : 1046 ft
- Code IATA : NUE


EDDN - Nuremberg

DERNIER METAR :
  • 210750Z VRB01KT 3500 -DZRA BR FEW002 BKN004 BKN012 04/03 Q1010 TEMPO BKN005

METARs EXPIRÉS :
  • 210720Z VRB02KT 3400 -DZRA BR SCT002 BKN004 04/03 Q1010 TEMPO 2500
  • 210650Z 26003KT 230V300 3200 -DZRA BR SCT002 BKN004 04/03 Q1010 TEMPO 2500
  • 210620Z 25003KT 3500 -DZRA BR SCT002 BKN004 BKN008 04/03 Q1010 TEMPO 2500
  • 210550Z 25003KT 4000 -DZRA BR SCT002 BKN008 BKN018 04/03 Q1010 TEMPO 2800 BKN004
  • 210520Z VRB02KT 4000 -DZRA BR SCT002 BKN008 BKN018 04/03 Q1010 TEMPO 2800 BKN004

TAF COR TAF EDDN
Valide du 21 à 06h jusqu'au 22 à 06h UTC


210534Z 2106/2206 VRB03KT 6000 SCT002 BKN008
TEMPO 2106/2110 2500 -DZRA BKN004
PROB30
TEMPO 2110/2113 SCT008 BKN014
BECMG 2113/2115 BKN015
BECMG 2202/2204 BKN004
TEMPO 2204/2206 4000 BR



MET'MAP, la Météo Aéronautique d'un coup d'oeil ! - Copyright ORBIFLY Décembre 2007 - Disclaimer

ORBIFLY MET'MAP TEAM :

Programmation & Développement : Alexandra Zaïnal
Conception & Développement : Baudouin d'Aumeries
Co-Programmation & Développement : Marc-Olivier Méhu
Soutien technique & logistique : Manuel Goepfert

Contact : metmap@orbifly.com




SOURCES & CREDITS :

   NOAA